sensor_id;sensor_type;location;lat;lon;timestamp;P1;durP1;ratioP1;P2;durP2;ratioP2
68247;SDS011;55064;49.636;12.164;2023-02-28T00:01:28;8.70;;;2.72;;
68247;SDS011;55064;49.636;12.164;2023-02-28T00:03:54;10.77;;;3.37;;
68247;SDS011;55064;49.636;12.164;2023-02-28T00:06:19;8.20;;;2.43;;
68247;SDS011;55064;49.636;12.164;2023-02-28T00:08:50;8.27;;;2.58;;
68247;SDS011;55064;49.636;12.164;2023-02-28T00:11:17;7.75;;;2.08;;
68247;SDS011;55064;49.636;12.164;2023-02-28T00:13:46;9.00;;;2.70;;
68247;SDS011;55064;49.636;12.164;2023-02-28T00:16:13;7.55;;;2.47;;
68247;SDS011;55064;49.636;12.164;2023-02-28T00:18:41;7.80;;;2.50;;
68247;SDS011;55064;49.636;12.164;2023-02-28T00:21:07;7.03;;;2.17;;
68247;SDS011;55064;49.636;12.164;2023-02-28T00:23:33;8.82;;;2.42;;
68247;SDS011;55064;49.636;12.164;2023-02-28T00:25:58;9.53;;;3.10;;
68247;SDS011;55064;49.636;12.164;2023-02-28T00:28:24;7.83;;;2.13;;
68247;SDS011;55064;49.636;12.164;2023-02-28T00:30:49;9.10;;;2.38;;
68247;SDS011;55064;49.636;12.164;2023-02-28T00:33:15;7.87;;;2.63;;
68247;SDS011;55064;49.636;12.164;2023-02-28T00:35:43;8.53;;;2.40;;
68247;SDS011;55064;49.636;12.164;2023-02-28T00:38:11;8.40;;;2.40;;
68247;SDS011;55064;49.636;12.164;2023-02-28T00:40:36;8.48;;;2.42;;
68247;SDS011;55064;49.636;12.164;2023-02-28T00:43:02;8.07;;;2.20;;
68247;SDS011;55064;49.636;12.164;2023-02-28T00:45:29;7.47;;;2.20;;
68247;SDS011;55064;49.636;12.164;2023-02-28T00:47:54;7.03;;;2.00;;
68247;SDS011;55064;49.636;12.164;2023-02-28T00:50:21;7.20;;;2.10;;
68247;SDS011;55064;49.636;12.164;2023-02-28T00:52:46;6.72;;;2.17;;
68247;SDS011;55064;49.636;12.164;2023-02-28T00:55:12;7.78;;;2.35;;
68247;SDS011;55064;49.636;12.164;2023-02-28T00:57:37;7.97;;;2.60;;
68247;SDS011;55064;49.636;12.164;2023-02-28T01:00:05;8.75;;;2.78;;
68247;SDS011;55064;49.636;12.164;2023-02-28T01:02:32;7.45;;;2.40;;
68247;SDS011;55064;49.636;12.164;2023-02-28T01:04:57;7.77;;;2.47;;
68247;SDS011;55064;49.636;12.164;2023-02-28T01:07:23;7.63;;;2.60;;
68247;SDS011;55064;49.636;12.164;2023-02-28T01:09:48;8.63;;;2.60;;
68247;SDS011;55064;49.636;12.164;2023-02-28T01:12:14;8.27;;;3.00;;
68247;SDS011;55064;49.636;12.164;2023-02-28T01:14:42;9.35;;;2.75;;
68247;SDS011;55064;49.636;12.164;2023-02-28T01:17:08;8.20;;;2.70;;
68247;SDS011;55064;49.636;12.164;2023-02-28T01:19:34;9.35;;;2.90;;
68247;SDS011;55064;49.636;12.164;2023-02-28T01:22:01;8.05;;;2.60;;
68247;SDS011;55064;49.636;12.164;2023-02-28T01:24:27;9.73;;;3.00;;
68247;SDS011;55064;49.636;12.164;2023-02-28T01:26:53;7.67;;;2.47;;
68247;SDS011;55064;49.636;12.164;2023-02-28T01:29:21;8.30;;;2.90;;
68247;SDS011;55064;49.636;12.164;2023-02-28T01:31:46;8.03;;;2.47;;
68247;SDS011;55064;49.636;12.164;2023-02-28T01:34:12;8.70;;;3.10;;
68247;SDS011;55064;49.636;12.164;2023-02-28T01:36:39;12.75;;;3.58;;
68247;SDS011;55064;49.636;12.164;2023-02-28T01:39:06;9.10;;;3.10;;
68247;SDS011;55064;49.636;12.164;2023-02-28T01:41:32;10.25;;;3.00;;
68247;SDS011;55064;49.636;12.164;2023-02-28T01:44:02;7.95;;;2.72;;
68247;SDS011;55064;49.636;12.164;2023-02-28T01:46:48;8.98;;;2.88;;
68247;SDS011;55064;49.636;12.164;2023-02-28T01:49:15;9.57;;;2.90;;
68247;SDS011;55064;49.636;12.164;2023-02-28T01:51:49;7.97;;;3.10;;
68247;SDS011;55064;49.636;12.164;2023-02-28T01:54:19;10.50;;;3.38;;
68247;SDS011;55064;49.636;12.164;2023-02-28T01:57:10;8.77;;;2.95;;
68247;SDS011;55064;49.636;12.164;2023-02-28T01:59:38;10.57;;;3.47;;
68247;SDS011;55064;49.636;12.164;2023-02-28T02:02:13;12.57;;;4.00;;
68247;SDS011;55064;49.636;12.164;2023-02-28T02:04:57;10.67;;;3.50;;
68247;SDS011;55064;49.636;12.164;2023-02-28T02:07:36;11.40;;;4.00;;
68247;SDS011;55064;49.636;12.164;2023-02-28T02:15:36;10.55;;;3.65;;
68247;SDS011;55064;49.636;12.164;2023-02-28T02:18:14;9.63;;;3.40;;
68247;SDS011;55064;49.636;12.164;2023-02-28T02:39:59;11.50;;;4.25;;
68247;SDS011;55064;49.636;12.164;2023-02-28T02:42:49;11.15;;;3.53;;
68247;SDS011;55064;49.636;12.164;2023-02-28T02:48:15;12.50;;;4.32;;
68247;SDS011;55064;49.636;12.164;2023-02-28T02:51:06;10.45;;;4.07;;
68247;SDS011;55064;49.636;12.164;2023-02-28T02:53:37;11.48;;;3.70;;
68247;SDS011;55064;49.636;12.164;2023-02-28T02:56:09;12.50;;;4.00;;
68247;SDS011;55064;49.636;12.164;2023-02-28T02:58:36;10.53;;;4.00;;
68247;SDS011;55064;49.636;12.164;2023-02-28T03:01:09;12.10;;;3.85;;
68247;SDS011;55064;49.636;12.164;2023-02-28T03:03:37;13.25;;;4.25;;
68247;SDS011;55064;49.636;12.164;2023-02-28T03:06:03;12.30;;;4.07;;
68247;SDS011;55064;49.636;12.164;2023-02-28T03:08:29;11.98;;;4.07;;
68247;SDS011;55064;49.636;12.164;2023-02-28T03:11:03;13.30;;;4.35;;
68247;SDS011;55064;49.636;12.164;2023-02-28T03:26:36;11.27;;;4.07;;
68247;SDS011;55064;49.636;12.164;2023-02-28T03:29:15;12.30;;;4.50;;
68247;SDS011;55064;49.636;12.164;2023-02-28T03:32:22;12.57;;;4.60;;
68247;SDS011;55064;49.636;12.164;2023-02-28T03:37:49;11.13;;;3.90;;
68247;SDS011;55064;49.636;12.164;2023-02-28T03:40:19;12.25;;;4.22;;
68247;SDS011;55064;49.636;12.164;2023-02-28T03:42:48;11.02;;;4.13;;
68247;SDS011;55064;49.636;12.164;2023-02-28T03:45:22;12.03;;;4.40;;
68247;SDS011;55064;49.636;12.164;2023-02-28T03:47:56;11.18;;;4.15;;
68247;SDS011;55064;49.636;12.164;2023-02-28T03:50:45;12.70;;;4.20;;
68247;SDS011;55064;49.636;12.164;2023-02-28T03:53:25;12.93;;;4.70;;
68247;SDS011;55064;49.636;12.164;2023-02-28T04:01:30;12.38;;;3.95;;
68247;SDS011;55064;49.636;12.164;2023-02-28T04:04:00;10.77;;;4.20;;
68247;SDS011;55064;49.636;12.164;2023-02-28T04:06:26;10.48;;;4.10;;
68247;SDS011;55064;49.636;12.164;2023-02-28T04:08:52;13.13;;;4.50;;
68247;SDS011;55064;49.636;12.164;2023-02-28T04:11:21;11.30;;;3.92;;
68247;SDS011;55064;49.636;12.164;2023-02-28T04:13:48;12.35;;;4.65;;
68247;SDS011;55064;49.636;12.164;2023-02-28T04:16:15;11.37;;;4.07;;
68247;SDS011;55064;49.636;12.164;2023-02-28T04:18:41;12.43;;;4.32;;
68247;SDS011;55064;49.636;12.164;2023-02-28T04:21:11;12.02;;;4.68;;
68247;SDS011;55064;49.636;12.164;2023-02-28T04:23:38;12.85;;;5.05;;
68247;SDS011;55064;49.636;12.164;2023-02-28T04:26:06;14.97;;;5.37;;
68247;SDS011;55064;49.636;12.164;2023-02-28T04:28:32;12.80;;;4.93;;
68247;SDS011;55064;49.636;12.164;2023-02-28T04:31:02;12.38;;;4.93;;
68247;SDS011;55064;49.636;12.164;2023-02-28T04:33:33;12.70;;;4.50;;
68247;SDS011;55064;49.636;12.164;2023-02-28T04:36:02;16.75;;;4.78;;
68247;SDS011;55064;49.636;12.164;2023-02-28T04:38:32;18.30;;;5.78;;
68247;SDS011;55064;49.636;12.164;2023-02-28T04:41:02;16.42;;;5.53;;
68247;SDS011;55064;49.636;12.164;2023-02-28T04:43:27;14.00;;;4.82;;
68247;SDS011;55064;49.636;12.164;2023-02-28T04:45:54;14.70;;;5.10;;
68247;SDS011;55064;49.636;12.164;2023-02-28T04:48:22;12.93;;;4.88;;
68247;SDS011;55064;49.636;12.164;2023-02-28T04:50:51;13.13;;;4.72;;
68247;SDS011;55064;49.636;12.164;2023-02-28T04:53:17;15.18;;;4.93;;
68247;SDS011;55064;49.636;12.164;2023-02-28T04:55:43;12.27;;;4.75;;
68247;SDS011;55064;49.636;12.164;2023-02-28T04:58:09;12.47;;;5.00;;
68247;SDS011;55064;49.636;12.164;2023-02-28T05:00:34;12.73;;;4.97;;
68247;SDS011;55064;49.636;12.164;2023-02-28T05:03:00;11.50;;;4.77;;
68247;SDS011;55064;49.636;12.164;2023-02-28T05:05:26;15.95;;;4.10;;
68247;SDS011;55064;49.636;12.164;2023-02-28T05:07:51;11.47;;;4.13;;
68247;SDS011;55064;49.636;12.164;2023-02-28T05:10:20;12.20;;;4.93;;
68247;SDS011;55064;49.636;12.164;2023-02-28T05:12:46;13.32;;;4.78;;
68247;SDS011;55064;49.636;12.164;2023-02-28T05:15:13;11.65;;;4.57;;
68247;SDS011;55064;49.636;12.164;2023-02-28T05:17:39;15.07;;;5.07;;
68247;SDS011;55064;49.636;12.164;2023-02-28T05:20:05;14.05;;;4.65;;
68247;SDS011;55064;49.636;12.164;2023-02-28T05:22:31;12.70;;;4.80;;
68247;SDS011;55064;49.636;12.164;2023-02-28T05:24:57;11.05;;;4.13;;
68247;SDS011;55064;49.636;12.164;2023-02-28T05:27:24;10.27;;;3.85;;
68247;SDS011;55064;49.636;12.164;2023-02-28T05:29:50;14.03;;;5.40;;
68247;SDS011;55064;49.636;12.164;2023-02-28T05:32:16;11.50;;;3.97;;
68247;SDS011;55064;49.636;12.164;2023-02-28T05:34:41;11.10;;;4.38;;
68247;SDS011;55064;49.636;12.164;2023-02-28T05:37:13;14.93;;;5.20;;
68247;SDS011;55064;49.636;12.164;2023-02-28T05:39:39;13.87;;;4.87;;
68247;SDS011;55064;49.636;12.164;2023-02-28T05:42:04;12.00;;;4.47;;
68247;SDS011;55064;49.636;12.164;2023-02-28T05:44:31;12.70;;;4.80;;
68247;SDS011;55064;49.636;12.164;2023-02-28T05:46:56;12.15;;;4.80;;
68247;SDS011;55064;49.636;12.164;2023-02-28T05:49:22;12.77;;;4.17;;
68247;SDS011;55064;49.636;12.164;2023-02-28T05:51:47;10.03;;;3.73;;
68247;SDS011;55064;49.636;12.164;2023-02-28T05:54:15;10.73;;;3.55;;
68247;SDS011;55064;49.636;12.164;2023-02-28T05:56:50;11.13;;;4.53;;
68247;SDS011;55064;49.636;12.164;2023-02-28T05:59:16;12.82;;;4.40;;
68247;SDS011;55064;49.636;12.164;2023-02-28T06:01:42;9.13;;;3.17;;
68247;SDS011;55064;49.636;12.164;2023-02-28T06:04:16;10.77;;;3.33;;
68247;SDS011;55064;49.636;12.164;2023-02-28T06:06:45;12.77;;;3.80;;
68247;SDS011;55064;49.636;12.164;2023-02-28T06:09:11;11.68;;;4.30;;
68247;SDS011;55064;49.636;12.164;2023-02-28T06:11:37;11.17;;;4.37;;
68247;SDS011;55064;49.636;12.164;2023-02-28T06:14:03;14.13;;;5.32;;
68247;SDS011;55064;49.636;12.164;2023-02-28T06:16:30;14.70;;;4.88;;
68247;SDS011;55064;49.636;12.164;2023-02-28T06:18:57;14.53;;;4.63;;
68247;SDS011;55064;49.636;12.164;2023-02-28T06:21:26;12.63;;;4.72;;
68247;SDS011;55064;49.636;12.164;2023-02-28T06:23:55;12.82;;;4.93;;
68247;SDS011;55064;49.636;12.164;2023-02-28T06:26:20;11.18;;;3.95;;
68247;SDS011;55064;49.636;12.164;2023-02-28T06:28:49;13.18;;;5.20;;
68247;SDS011;55064;49.636;12.164;2023-02-28T06:31:15;14.27;;;4.70;;
68247;SDS011;55064;49.636;12.164;2023-02-28T06:33:44;11.45;;;4.18;;
68247;SDS011;55064;49.636;12.164;2023-02-28T06:36:10;15.10;;;4.90;;
68247;SDS011;55064;49.636;12.164;2023-02-28T06:38:37;12.05;;;4.25;;
68247;SDS011;55064;49.636;12.164;2023-02-28T06:41:03;12.80;;;4.93;;
68247;SDS011;55064;49.636;12.164;2023-02-28T06:43:29;12.77;;;4.93;;
68247;SDS011;55064;49.636;12.164;2023-02-28T06:45:57;16.20;;;5.85;;
68247;SDS011;55064;49.636;12.164;2023-02-28T06:48:29;12.93;;;4.57;;
68247;SDS011;55064;49.636;12.164;2023-02-28T06:51:08;12.20;;;5.10;;
68247;SDS011;55064;49.636;12.164;2023-02-28T06:53:35;18.95;;;5.97;;
68247;SDS011;55064;49.636;12.164;2023-02-28T06:56:04;14.23;;;5.10;;
68247;SDS011;55064;49.636;12.164;2023-02-28T06:58:31;11.88;;;4.85;;
68247;SDS011;55064;49.636;12.164;2023-02-28T07:00:58;11.57;;;4.80;;
68247;SDS011;55064;49.636;12.164;2023-02-28T07:03:25;14.60;;;5.65;;
68247;SDS011;55064;49.636;12.164;2023-02-28T07:05:51;13.57;;;4.63;;
68247;SDS011;55064;49.636;12.164;2023-02-28T07:08:21;14.95;;;4.75;;
68247;SDS011;55064;49.636;12.164;2023-02-28T07:10:47;13.00;;;4.33;;
68247;SDS011;55064;49.636;12.164;2023-02-28T07:13:16;15.57;;;5.57;;
68247;SDS011;55064;49.636;12.164;2023-02-28T07:15:42;11.43;;;3.93;;
68247;SDS011;55064;49.636;12.164;2023-02-28T07:18:18;13.05;;;4.90;;
68247;SDS011;55064;49.636;12.164;2023-02-28T07:20:45;11.50;;;4.00;;
68247;SDS011;55064;49.636;12.164;2023-02-28T07:23:12;13.88;;;4.07;;
68247;SDS011;55064;49.636;12.164;2023-02-28T07:25:38;12.50;;;4.67;;
68247;SDS011;55064;49.636;12.164;2023-02-28T07:28:04;14.18;;;4.40;;
68247;SDS011;55064;49.636;12.164;2023-02-28T07:30:29;10.87;;;3.70;;
68247;SDS011;55064;49.636;12.164;2023-02-28T07:32:55;11.07;;;4.03;;
68247;SDS011;55064;49.636;12.164;2023-02-28T07:35:23;7.80;;;2.53;;
68247;SDS011;55064;49.636;12.164;2023-02-28T07:37:51;11.45;;;4.30;;
68247;SDS011;55064;49.636;12.164;2023-02-28T07:40:17;12.80;;;3.87;;
68247;SDS011;55064;49.636;12.164;2023-02-28T07:42:43;11.50;;;4.50;;
68247;SDS011;55064;49.636;12.164;2023-02-28T07:45:10;12.70;;;4.40;;
68247;SDS011;55064;49.636;12.164;2023-02-28T07:47:39;14.23;;;5.43;;
68247;SDS011;55064;49.636;12.164;2023-02-28T07:50:07;15.20;;;5.17;;
68247;SDS011;55064;49.636;12.164;2023-02-28T07:52:34;10.38;;;3.47;;
68247;SDS011;55064;49.636;12.164;2023-02-28T07:55:00;10.23;;;3.65;;
68247;SDS011;55064;49.636;12.164;2023-02-28T07:57:28;13.13;;;4.00;;
68247;SDS011;55064;49.636;12.164;2023-02-28T07:59:53;12.85;;;4.40;;
68247;SDS011;55064;49.636;12.164;2023-02-28T08:02:20;9.23;;;3.73;;
68247;SDS011;55064;49.636;12.164;2023-02-28T08:04:45;12.38;;;4.50;;
68247;SDS011;55064;49.636;12.164;2023-02-28T08:07:12;11.70;;;3.90;;
68247;SDS011;55064;49.636;12.164;2023-02-28T08:09:40;13.88;;;4.85;;
68247;SDS011;55064;49.636;12.164;2023-02-28T08:12:07;8.73;;;3.40;;
68247;SDS011;55064;49.636;12.164;2023-02-28T08:14:37;15.45;;;4.85;;
68247;SDS011;55064;49.636;12.164;2023-02-28T08:17:05;9.57;;;3.50;;
68247;SDS011;55064;49.636;12.164;2023-02-28T08:19:33;8.23;;;3.38;;
68247;SDS011;55064;49.636;12.164;2023-02-28T08:21:59;10.90;;;3.90;;
68247;SDS011;55064;49.636;12.164;2023-02-28T08:24:27;14.02;;;5.55;;
68247;SDS011;55064;49.636;12.164;2023-02-28T08:26:52;10.13;;;4.05;;
68247;SDS011;55064;49.636;12.164;2023-02-28T08:29:18;9.03;;;3.03;;
68247;SDS011;55064;49.636;12.164;2023-02-28T08:31:45;8.73;;;3.00;;
68247;SDS011;55064;49.636;12.164;2023-02-28T08:34:12;8.30;;;3.28;;
68247;SDS011;55064;49.636;12.164;2023-02-28T08:36:40;7.72;;;3.08;;
68247;SDS011;55064;49.636;12.164;2023-02-28T08:39:06;9.47;;;2.90;;
68247;SDS011;55064;49.636;12.164;2023-02-28T08:41:32;8.48;;;2.42;;
68247;SDS011;55064;49.636;12.164;2023-02-28T08:44:00;9.27;;;3.08;;
68247;SDS011;55064;49.636;12.164;2023-02-28T08:46:26;7.67;;;2.83;;
68247;SDS011;55064;49.636;12.164;2023-02-28T08:48:52;11.03;;;5.10;;
68247;SDS011;55064;49.636;12.164;2023-02-28T08:51:20;9.37;;;3.63;;
68247;SDS011;55064;49.636;12.164;2023-02-28T08:53:51;14.82;;;5.10;;
68247;SDS011;55064;49.636;12.164;2023-02-28T08:56:17;8.13;;;2.28;;
68247;SDS011;55064;49.636;12.164;2023-02-28T08:58:46;8.05;;;3.13;;
68247;SDS011;55064;49.636;12.164;2023-02-28T09:01:13;10.15;;;3.58;;
68247;SDS011;55064;49.636;12.164;2023-02-28T09:03:39;11.23;;;3.13;;
68247;SDS011;55064;49.636;12.164;2023-02-28T09:06:09;7.53;;;3.15;;
68247;SDS011;55064;49.636;12.164;2023-02-28T09:08:36;9.38;;;4.18;;
68247;SDS011;55064;49.636;12.164;2023-02-28T09:11:03;10.07;;;2.90;;
68247;SDS011;55064;49.636;12.164;2023-02-28T09:13:29;10.80;;;3.93;;
68247;SDS011;55064;49.636;12.164;2023-02-28T09:15:57;10.45;;;4.03;;
68247;SDS011;55064;49.636;12.164;2023-02-28T09:18:23;10.13;;;3.00;;
68247;SDS011;55064;49.636;12.164;2023-02-28T09:20:49;9.67;;;3.80;;
68247;SDS011;55064;49.636;12.164;2023-02-28T09:23:16;10.88;;;4.95;;
68247;SDS011;55064;49.636;12.164;2023-02-28T09:25:53;8.75;;;3.20;;
68247;SDS011;55064;49.636;12.164;2023-02-28T09:28:19;9.35;;;3.58;;
68247;SDS011;55064;49.636;12.164;2023-02-28T09:30:46;9.10;;;3.13;;
68247;SDS011;55064;49.636;12.164;2023-02-28T09:33:14;10.88;;;3.63;;
68247;SDS011;55064;49.636;12.164;2023-02-28T09:35:39;7.07;;;2.95;;
68247;SDS011;55064;49.636;12.164;2023-02-28T09:38:12;10.93;;;3.60;;
68247;SDS011;55064;49.636;12.164;2023-02-28T09:40:49;9.33;;;3.23;;
68247;SDS011;55064;49.636;12.164;2023-02-28T09:43:16;20.33;;;6.18;;
68247;SDS011;55064;49.636;12.164;2023-02-28T09:45:52;10.07;;;3.97;;
68247;SDS011;55064;49.636;12.164;2023-02-28T09:48:27;9.00;;;3.63;;
68247;SDS011;55064;49.636;12.164;2023-02-28T09:51:03;12.20;;;4.47;;
68247;SDS011;55064;49.636;12.164;2023-02-28T09:53:47;12.40;;;5.20;;
68247;SDS011;55064;49.636;12.164;2023-02-28T09:56:17;11.88;;;4.18;;
68247;SDS011;55064;49.636;12.164;2023-02-28T10:07:41;11.75;;;5.55;;
68247;SDS011;55064;49.636;12.164;2023-02-28T10:10:18;9.75;;;3.92;;
68247;SDS011;55064;49.636;12.164;2023-02-28T10:12:54;10.77;;;3.77;;
68247;SDS011;55064;49.636;12.164;2023-02-28T10:15:23;11.57;;;4.22;;
68247;SDS011;55064;49.636;12.164;2023-02-28T10:17:58;11.93;;;4.78;;
68247;SDS011;55064;49.636;12.164;2023-02-28T10:20:27;10.30;;;4.35;;
68247;SDS011;55064;49.636;12.164;2023-02-28T10:25:33;13.60;;;4.70;;
68247;SDS011;55064;49.636;12.164;2023-02-28T10:28:13;13.85;;;5.47;;
68247;SDS011;55064;49.636;12.164;2023-02-28T10:30:41;11.23;;;4.35;;
68247;SDS011;55064;49.636;12.164;2023-02-28T10:35:48;11.23;;;4.05;;
68247;SDS011;55064;49.636;12.164;2023-02-28T10:38:17;13.63;;;4.90;;
68247;SDS011;55064;49.636;12.164;2023-02-28T10:40:48;12.02;;;4.85;;
68247;SDS011;55064;49.636;12.164;2023-02-28T10:45:39;11.52;;;3.40;;
68247;SDS011;55064;49.636;12.164;2023-02-28T10:50:52;11.73;;;4.00;;
68247;SDS011;55064;49.636;12.164;2023-02-28T10:58:32;11.15;;;4.60;;
68247;SDS011;55064;49.636;12.164;2023-02-28T11:09:49;14.25;;;5.10;;
68247;SDS011;55064;49.636;12.164;2023-02-28T11:12:20;12.85;;;5.97;;
68247;SDS011;55064;49.636;12.164;2023-02-28T11:15:19;10.67;;;4.33;;
68247;SDS011;55064;49.636;12.164;2023-02-28T11:18:33;13.57;;;5.32;;
68247;SDS011;55064;49.636;12.164;2023-02-28T11:20:38;15.23;;;5.45;;
68247;SDS011;55064;49.636;12.164;2023-02-28T11:23:04;13.15;;;5.97;;
68247;SDS011;55064;49.636;12.164;2023-02-28T11:25:37;15.10;;;5.78;;
68247;SDS011;55064;49.636;12.164;2023-02-28T11:28:05;14.63;;;6.40;;
68247;SDS011;55064;49.636;12.164;2023-02-28T11:31:04;13.20;;;4.82;;
68247;SDS011;55064;49.636;12.164;2023-02-28T11:33:55;16.58;;;6.78;;
68247;SDS011;55064;49.636;12.164;2023-02-28T11:36:25;14.45;;;5.68;;
68247;SDS011;55064;49.636;12.164;2023-02-28T11:38:56;17.48;;;7.65;;
68247;SDS011;55064;49.636;12.164;2023-02-28T11:47:01;14.05;;;6.07;;
68247;SDS011;55064;49.636;12.164;2023-02-28T11:52:46;14.32;;;6.60;;
68247;SDS011;55064;49.636;12.164;2023-02-28T11:58:23;11.57;;;4.10;;
68247;SDS011;55064;49.636;12.164;2023-02-28T12:01:19;12.18;;;4.95;;
68247;SDS011;55064;49.636;12.164;2023-02-28T12:03:59;11.73;;;4.80;;
68247;SDS011;55064;49.636;12.164;2023-02-28T12:09:20;11.00;;;4.40;;
68247;SDS011;55064;49.636;12.164;2023-02-28T12:11:59;16.00;;;5.93;;
68247;SDS011;55064;49.636;12.164;2023-02-28T12:20:47;14.40;;;5.00;;
68247;SDS011;55064;49.636;12.164;2023-02-28T12:26:16;13.57;;;5.20;;
68247;SDS011;55064;49.636;12.164;2023-02-28T12:28:54;14.57;;;5.50;;
68247;SDS011;55064;49.636;12.164;2023-02-28T12:31:29;14.50;;;5.95;;
68247;SDS011;55064;49.636;12.164;2023-02-28T12:34:04;11.32;;;4.43;;
68247;SDS011;55064;49.636;12.164;2023-02-28T12:36:37;17.60;;;6.13;;
68247;SDS011;55064;49.636;12.164;2023-02-28T12:39:15;13.93;;;6.43;;
68247;SDS011;55064;49.636;12.164;2023-02-28T12:41:47;16.30;;;6.25;;
68247;SDS011;55064;49.636;12.164;2023-02-28T12:44:53;15.77;;;6.57;;
68247;SDS011;55064;49.636;12.164;2023-02-28T12:47:23;13.80;;;6.00;;
68247;SDS011;55064;49.636;12.164;2023-02-28T12:49:49;14.00;;;4.93;;
68247;SDS011;55064;49.636;12.164;2023-02-28T12:52:23;14.27;;;5.65;;
68247;SDS011;55064;49.636;12.164;2023-02-28T13:00:12;11.73;;;5.37;;
68247;SDS011;55064;49.636;12.164;2023-02-28T13:13:15;16.53;;;6.47;;
68247;SDS011;55064;49.636;12.164;2023-02-28T13:18:28;14.63;;;5.80;;
68247;SDS011;55064;49.636;12.164;2023-02-28T13:21:05;14.25;;;5.70;;
68247;SDS011;55064;49.636;12.164;2023-02-28T13:23:40;15.20;;;5.40;;
68247;SDS011;55064;49.636;12.164;2023-02-28T13:34:41;16.08;;;6.85;;
68247;SDS011;55064;49.636;12.164;2023-02-28T13:39:58;12.87;;;4.37;;
68247;SDS011;55064;49.636;12.164;2023-02-28T13:42:49;14.00;;;5.25;;
68247;SDS011;55064;49.636;12.164;2023-02-28T13:45:26;11.60;;;4.60;;
68247;SDS011;55064;49.636;12.164;2023-02-28T13:48:15;12.82;;;4.88;;
68247;SDS011;55064;49.636;12.164;2023-02-28T13:50:46;12.88;;;4.47;;
68247;SDS011;55064;49.636;12.164;2023-02-28T14:06:35;15.00;;;5.55;;
68247;SDS011;55064;49.636;12.164;2023-02-28T14:11:56;13.32;;;5.38;;
68247;SDS011;55064;49.636;12.164;2023-02-28T14:16:59;11.47;;;5.23;;
68247;SDS011;55064;49.636;12.164;2023-02-28T14:19:29;13.07;;;4.90;;
68247;SDS011;55064;49.636;12.164;2023-02-28T14:28:14;13.05;;;5.63;;
68247;SDS011;55064;49.636;12.164;2023-02-28T14:31:09;12.93;;;4.87;;
68247;SDS011;55064;49.636;12.164;2023-02-28T14:36:10;13.52;;;5.45;;
68247;SDS011;55064;49.636;12.164;2023-02-28T14:38:50;15.82;;;6.07;;
68247;SDS011;55064;49.636;12.164;2023-02-28T14:43:53;17.20;;;7.13;;
68247;SDS011;55064;49.636;12.164;2023-02-28T14:46:22;14.83;;;5.80;;
68247;SDS011;55064;49.636;12.164;2023-02-28T14:48:52;12.73;;;5.45;;
68247;SDS011;55064;49.636;12.164;2023-02-28T14:51:18;12.98;;;4.85;;
68247;SDS011;55064;49.636;12.164;2023-02-28T14:53:49;13.60;;;5.03;;
68247;SDS011;55064;49.636;12.164;2023-02-28T14:56:21;14.18;;;5.20;;
68247;SDS011;55064;49.636;12.164;2023-02-28T14:58:53;13.33;;;5.27;;
68247;SDS011;55064;49.636;12.164;2023-02-28T15:01:22;11.38;;;4.88;;
68247;SDS011;55064;49.636;12.164;2023-02-28T15:03:58;12.00;;;4.72;;
68247;SDS011;55064;49.636;12.164;2023-02-28T15:06:26;17.67;;;6.97;;
68247;SDS011;55064;49.636;12.164;2023-02-28T15:09:09;13.60;;;5.72;;
68247;SDS011;55064;49.636;12.164;2023-02-28T15:11:45;11.87;;;5.17;;
68247;SDS011;55064;49.636;12.164;2023-02-28T15:14:17;16.42;;;5.72;;
68247;SDS011;55064;49.636;12.164;2023-02-28T15:16:46;14.57;;;6.32;;
68247;SDS011;55064;49.636;12.164;2023-02-28T15:19:30;18.45;;;5.97;;
68247;SDS011;55064;49.636;12.164;2023-02-28T15:22:02;12.07;;;5.13;;
68247;SDS011;55064;49.636;12.164;2023-02-28T15:27:05;14.30;;;5.65;;
68247;SDS011;55064;49.636;12.164;2023-02-28T15:29:45;15.90;;;7.05;;
68247;SDS011;55064;49.636;12.164;2023-02-28T15:33:00;13.20;;;5.65;;
68247;SDS011;55064;49.636;12.164;2023-02-28T15:35:27;10.45;;;3.75;;
68247;SDS011;55064;49.636;12.164;2023-02-28T15:37:55;15.27;;;4.87;;
68247;SDS011;55064;49.636;12.164;2023-02-28T15:40:25;13.48;;;5.43;;
68247;SDS011;55064;49.636;12.164;2023-02-28T15:42:59;18.73;;;7.22;;
68247;SDS011;55064;49.636;12.164;2023-02-28T15:45:36;17.25;;;5.70;;
68247;SDS011;55064;49.636;12.164;2023-02-28T15:50:55;14.43;;;5.93;;
68247;SDS011;55064;49.636;12.164;2023-02-28T15:53:32;13.30;;;4.78;;
68247;SDS011;55064;49.636;12.164;2023-02-28T15:56:02;15.90;;;6.07;;
68247;SDS011;55064;49.636;12.164;2023-02-28T15:58:32;13.82;;;5.50;;
68247;SDS011;55064;49.636;12.164;2023-02-28T16:01:06;16.33;;;6.10;;
68247;SDS011;55064;49.636;12.164;2023-02-28T16:04:11;11.37;;;4.27;;
68247;SDS011;55064;49.636;12.164;2023-02-28T16:09:14;15.98;;;6.57;;
68247;SDS011;55064;49.636;12.164;2023-02-28T16:11:52;17.67;;;7.82;;
68247;SDS011;55064;49.636;12.164;2023-02-28T16:14:21;15.52;;;5.80;;
68247;SDS011;55064;49.636;12.164;2023-02-28T16:16:49;17.67;;;7.53;;
68247;SDS011;55064;49.636;12.164;2023-02-28T16:19:17;12.63;;;5.18;;
68247;SDS011;55064;49.636;12.164;2023-02-28T16:21:43;16.20;;;6.32;;
68247;SDS011;55064;49.636;12.164;2023-02-28T16:24:09;15.98;;;6.40;;
68247;SDS011;55064;49.636;12.164;2023-02-28T16:26:36;15.87;;;6.37;;
68247;SDS011;55064;49.636;12.164;2023-02-28T16:29:04;16.60;;;7.05;;
68247;SDS011;55064;49.636;12.164;2023-02-28T16:31:29;18.60;;;6.63;;
68247;SDS011;55064;49.636;12.164;2023-02-28T16:33:59;16.48;;;7.22;;
68247;SDS011;55064;49.636;12.164;2023-02-28T16:36:25;15.57;;;6.47;;
68247;SDS011;55064;49.636;12.164;2023-02-28T16:38:50;17.00;;;7.10;;
68247;SDS011;55064;49.636;12.164;2023-02-28T16:41:22;18.00;;;6.60;;
68247;SDS011;55064;49.636;12.164;2023-02-28T16:43:54;15.75;;;6.38;;
68247;SDS011;55064;49.636;12.164;2023-02-28T16:46:27;17.83;;;7.03;;
68247;SDS011;55064;49.636;12.164;2023-02-28T16:48:59;16.35;;;6.35;;
68247;SDS011;55064;49.636;12.164;2023-02-28T16:51:29;23.15;;;9.20;;
68247;SDS011;55064;49.636;12.164;2023-02-28T16:53:58;14.10;;;6.50;;
68247;SDS011;55064;49.636;12.164;2023-02-28T16:56:24;17.88;;;6.78;;
68247;SDS011;55064;49.636;12.164;2023-02-28T16:58:50;17.07;;;7.13;;
68247;SDS011;55064;49.636;12.164;2023-02-28T17:01:18;16.25;;;7.00;;
68247;SDS011;55064;49.636;12.164;2023-02-28T17:03:47;18.48;;;7.97;;
68247;SDS011;55064;49.636;12.164;2023-02-28T17:06:22;18.65;;;6.65;;
68247;SDS011;55064;49.636;12.164;2023-02-28T17:08:49;15.02;;;6.60;;
68247;SDS011;55064;49.636;12.164;2023-02-28T17:11:18;24.30;;;10.53;;
68247;SDS011;55064;49.636;12.164;2023-02-28T17:13:44;18.42;;;7.60;;
68247;SDS011;55064;49.636;12.164;2023-02-28T17:16:28;18.20;;;6.85;;
68247;SDS011;55064;49.636;12.164;2023-02-28T17:18:57;16.17;;;6.45;;
68247;SDS011;55064;49.636;12.164;2023-02-28T17:21:30;17.00;;;7.50;;
68247;SDS011;55064;49.636;12.164;2023-02-28T17:23:58;18.13;;;7.97;;
68247;SDS011;55064;49.636;12.164;2023-02-28T17:26:23;17.98;;;7.68;;
68247;SDS011;55064;49.636;12.164;2023-02-28T17:28:50;17.88;;;7.43;;
68247;SDS011;55064;49.636;12.164;2023-02-28T17:31:16;22.65;;;7.85;;
68247;SDS011;55064;49.636;12.164;2023-02-28T17:33:45;22.00;;;8.80;;
68247;SDS011;55064;49.636;12.164;2023-02-28T17:36:16;22.30;;;8.48;;